ADDS METAR Data INFO
IDs: Format: Raw Decoded Include TAF

Data at: 2306 UTC 21 Feb 2018

KJKL 212253Z AUTO 05003KT 10SM SCT043 BKN060 16/14 A3034 RMK AO2 SLP266 T01560144
KJKL 212153Z AUTO 04003KT 10SM BKN034 OVC048 16/15 A3034 RMK AO2 RAE12 SLP266 P0003 T01610150
KJKL 212053Z AUTO 02003KT 5SM RA BR BKN036 BKN049 OVC060 16/14 A3034 RMK AO2 RAB32 SLP264 P0000 60024 T01610139 52003
KJKL 212010Z AUTO 00000KT 10SM FEW009 SCT035 BKN110 17/14 A3034 RMK AO2 T01720144
KJKL 211953Z AUTO VRB03KT 10SM SCT026 BKN055 BKN110 16/14 A3034 RMK AO2 RAE49 SLP264 P0010 T01610144
KJKL 211929Z AUTO 04003KT 3SM RA BR SCT005 BKN024 OVC060 15/14 A3034 RMK AO2 P0009 T01500144
KJKL 211921Z AUTO 04003KT 1 3/4SM +RA BR SCT005 BKN010 OVC032 15/14 A3034 RMK AO2 LTG DSNT E P0007 T01500139
KJKL 211915Z AUTO 00000KT 2 1/2SM RA BR BKN007 BKN024 OVC070 15/14 A3034 RMK AO2 LTG DSNT E P0003 T01500139
KJKL 211904Z AUTO VRB03KT 6SM -RA BR FEW005 BKN025 OVC070 15/14 A3034 RMK AO2 P0000 T01500139
KJKL 211853Z AUTO VRB03KT 8SM -RA FEW021 BKN050 OVC060 16/14 A3033 RMK AO2 SLP262 P0014 T01560144
KJKL 211810Z AUTO VRB05KT 5SM -RA BR FEW032 BKN042 OVC055 16/14 A3032 RMK AO2 P0006 T01610144
KJKL 211759Z AUTO VRB04G15KT 2SM -RA BR FEW033 BKN039 OVC055 16/14 A3033 RMK AO2 P0005 T01610144
KJKL 211753Z AUTO VRB06G21KT 1 1/2SM +RA BR SCT033 BKN041 OVC049 16/14 A3033 RMK AO2 PK WND 32028/1742 VIS 1V5 RAB41 SLP261 P0006 60006 T01610144 10267 20161 53005
KJKL 211653Z AUTO 10SM BKN041 BKN050 25/14 A3032 RMK AO2 SLP252 T02500144
KJKL 211553Z AUTO 21010G20KT 10SM BKN034 BKN043 BKN085 23/15 A3031 RMK AO2 SLP251 T02280150
KJKL 211453Z AUTO VRB04KT 10SM FEW043 BKN060 OVC100 21/16 A3031 RMK AO2 RAE15 SLP253 P0000 60000 T02110156 53016
KJKL 211353Z AUTO 9SM -RA FEW050 BKN080 BKN110 20/15 A3030 RMK AO2 RAB48 SLP249 P0000 T02000150
KJKL 211253Z AUTO VRB05KT 10SM FEW100 19/14 A3027 RMK AO2 SLP240 T01940139
KJKL 210753Z AUTO VRB05KT 10SM FEW080 19/11 A3024 RMK AO2 SLP227 T01890106 $
KJKL 210653Z AUTO VRB04KT 10SM OVC080 19/11 A3026 RMK AO2 SLP232 T01940106 $
KJKL 210553Z AUTO VRB03KT 10SM OVC075 20/11 A3026 RMK AO2 SLP233 T02000111 10228 20200 55000 $
KJKL 201453Z AUTO 20009G20KT 160V240 10SM CLR 21/13 A3029 RMK AO2 SLP246 T02110128 51010
KJKL 201353Z AUTO 20008G17KT 170V230 10SM CLR 19/13 A3028 RMK AO2 SLP245 T01940128
KJKL 201253Z AUTO VRB05G15KT 10SM CLR 18/12 A3027 RMK AO2 SLP242 T01780122
KJKL 201153Z AUTO 19006KT 10SM CLR 18/12 A3026 RMK AO2 SLP236 T01780122 10183 20172 53013